Главная страница
METAR-TAF:

METAR-TAF

Аэропорты :

Афины, Греция

Элефтериос Венизелос

широта: 37-56N, долгота: 023-56E, высота над уровнем моря: 94 м

Текущие метеонаблюдения

Эта сводка был подготовлена 17 минут назад, в 11:50 UTC
Ветер 20 Узел от северо-западный с порывами до 31 Узел
Температура 10°C
Влажность 50%
Давление 1002 hPa
Видимость 10 км и более
небольшая облачность на высоте 3500 фута
Отдельные облака на высоте 5000 фута

METAR: LGAV 221150Z 32020G31KT 9999 FEW035 SCT050 10/M00 Q1002 NOSIG

Время: 14:07 (12:07 UTC)

Прогноз

Эта сводка был подготовлена 1 час и 7 минут назад, в 11:00 UTC
Прогноз действительный с 22-го 12 UTC до 23-го 12 UTC
Ветер 20 Узел от северный с порывами до 33 Узел
Видимость 10 км и более
Отдельные облака на высоте 1800 фута
Рассеянная облачность на высоте 3500 фута
изменения
С 22-го 18 UTC до 22-го 20 UTC
Ветер 25 Узел от северный с порывами до 35 Узел

TAF: LGAV 221100Z 2212/2312 35020G33KT 9999 SCT018 BKN035 BECMG 2218/2220 35025G35KT

Метеонаблюдения и прогнозы для более 4000 аэропортов (сводки METAR и TAF).

Имеющиеся станции представлены на карте желтыми и красными точками.

Чтобы увидеть название станции, наведите на нее мышь.

Затем щелкните, чтобы увидеть метеонаблюдения и метеопрогнозы.

Управление картой: чтобы увеличить масштаб, щелкните зеленые кнопки с черным крестиком; чтобы уменьшить масштаб, щелкните зеленую кнопку с тире; для просмотра соседних карт щелкайте зеленые стрелки.


METAR-TAF: